Spurgeon, Indiana
Current Conditions -  °F | °C
As of 3:55 AM on Friday 24 Oct 2014 (Local Time) from KHNB Reporting Station
Overcast Overcast  
Wind Chill: 39°   Ceiling: 200
Heat Index: 39°   Visibility: 0.25mi
Dew Point: 36°   Wind: 0mph
Humidity: 87%   Direction: NA
Pressure: 30.12"   Gusts: NA
Location:  38.25°N, 87.26°W
Report Text: KHNB 240855Z AUTO 00000KT 1/4SM VV002 04/02 A3012 RMK AO1 54000
Loading
Personal Weather Stations






























Interactive Weather Map
Tropical Storm Tracking
New forecast layout! Learn more

10-Day Weather Forecast

Advertisements
Track Severe Weather on mobile